sensor_id;sensor_type;location;lat;lon;timestamp;P1;durP1;ratioP1;P2;durP2;ratioP2
62050;SDS011;48008;51.204;6.766;2022-07-11T00:02:23;10.07;;;3.80;;
62050;SDS011;48008;51.204;6.766;2022-07-11T00:04:50;11.60;;;4.00;;
62050;SDS011;48008;51.204;6.766;2022-07-11T00:07:17;10.45;;;4.00;;
62050;SDS011;48008;51.204;6.766;2022-07-11T00:09:44;15.48;;;4.07;;
62050;SDS011;48008;51.204;6.766;2022-07-11T00:12:11;12.52;;;3.80;;
62050;SDS011;48008;51.204;6.766;2022-07-11T00:14:39;12.82;;;3.90;;
62050;SDS011;48008;51.204;6.766;2022-07-11T00:17:06;14.23;;;4.15;;
62050;SDS011;48008;51.204;6.766;2022-07-11T00:19:35;14.68;;;4.25;;
62050;SDS011;48008;51.204;6.766;2022-07-11T00:22:04;12.82;;;3.97;;
62050;SDS011;48008;51.204;6.766;2022-07-11T00:24:31;14.05;;;4.07;;
62050;SDS011;48008;51.204;6.766;2022-07-11T00:26:59;10.93;;;4.30;;
62050;SDS011;48008;51.204;6.766;2022-07-11T00:29:26;14.40;;;4.18;;
62050;SDS011;48008;51.204;6.766;2022-07-11T00:31:52;10.68;;;4.25;;
62050;SDS011;48008;51.204;6.766;2022-07-11T00:34:19;16.15;;;4.82;;
62050;SDS011;48008;51.204;6.766;2022-07-11T00:36:47;22.55;;;4.70;;
62050;SDS011;48008;51.204;6.766;2022-07-11T00:39:14;15.52;;;4.00;;
62050;SDS011;48008;51.204;6.766;2022-07-11T00:41:40;12.70;;;4.43;;
62050;SDS011;48008;51.204;6.766;2022-07-11T00:44:07;16.38;;;4.38;;
62050;SDS011;48008;51.204;6.766;2022-07-11T00:46:34;11.38;;;4.25;;
62050;SDS011;48008;51.204;6.766;2022-07-11T00:49:01;13.25;;;4.35;;
62050;SDS011;48008;51.204;6.766;2022-07-11T00:51:28;14.23;;;4.47;;
62050;SDS011;48008;51.204;6.766;2022-07-11T00:53:56;13.07;;;4.38;;
62050;SDS011;48008;51.204;6.766;2022-07-11T00:56:25;13.90;;;4.70;;
62050;SDS011;48008;51.204;6.766;2022-07-11T00:58:53;17.38;;;5.10;;
62050;SDS011;48008;51.204;6.766;2022-07-11T01:01:21;12.38;;;4.63;;
62050;SDS011;48008;51.204;6.766;2022-07-11T01:03:48;15.88;;;4.43;;
62050;SDS011;48008;51.204;6.766;2022-07-11T01:06:15;11.00;;;4.30;;
62050;SDS011;48008;51.204;6.766;2022-07-11T01:08:42;13.68;;;4.60;;
62050;SDS011;48008;51.204;6.766;2022-07-11T01:11:10;15.05;;;4.60;;
62050;SDS011;48008;51.204;6.766;2022-07-11T01:13:42;15.82;;;4.88;;
62050;SDS011;48008;51.204;6.766;2022-07-11T01:16:14;11.75;;;4.50;;
62050;SDS011;48008;51.204;6.766;2022-07-11T01:18:42;16.35;;;4.10;;
62050;SDS011;48008;51.204;6.766;2022-07-11T01:21:42;15.32;;;4.45;;
62050;SDS011;48008;51.204;6.766;2022-07-11T01:24:00;12.20;;;4.70;;
62050;SDS011;48008;51.204;6.766;2022-07-11T01:26:28;16.52;;;4.80;;
62050;SDS011;48008;51.204;6.766;2022-07-11T01:28:57;11.73;;;4.57;;
62050;SDS011;48008;51.204;6.766;2022-07-11T01:31:33;17.55;;;4.90;;
62050;SDS011;48008;51.204;6.766;2022-07-11T01:34:00;12.45;;;4.82;;
62050;SDS011;48008;51.204;6.766;2022-07-11T01:36:27;16.02;;;5.03;;
62050;SDS011;48008;51.204;6.766;2022-07-11T01:38:54;14.45;;;4.82;;
62050;SDS011;48008;51.204;6.766;2022-07-11T01:41:20;14.68;;;4.85;;
62050;SDS011;48008;51.204;6.766;2022-07-11T01:43:47;12.45;;;4.63;;
62050;SDS011;48008;51.204;6.766;2022-07-11T01:46:15;14.70;;;4.75;;
62050;SDS011;48008;51.204;6.766;2022-07-11T01:48:42;15.27;;;4.80;;
62050;SDS011;48008;51.204;6.766;2022-07-11T01:51:09;19.80;;;4.80;;
62050;SDS011;48008;51.204;6.766;2022-07-11T01:53:36;13.25;;;4.63;;
62050;SDS011;48008;51.204;6.766;2022-07-11T01:56:03;13.57;;;4.55;;
62050;SDS011;48008;51.204;6.766;2022-07-11T01:58:47;18.48;;;4.90;;
62050;SDS011;48008;51.204;6.766;2022-07-11T02:01:14;12.30;;;4.68;;
62050;SDS011;48008;51.204;6.766;2022-07-11T02:03:41;14.35;;;4.93;;
62050;SDS011;48008;51.204;6.766;2022-07-11T02:06:08;15.50;;;4.88;;
62050;SDS011;48008;51.204;6.766;2022-07-11T02:08:35;14.65;;;4.63;;
62050;SDS011;48008;51.204;6.766;2022-07-11T02:11:03;18.70;;;5.10;;
62050;SDS011;48008;51.204;6.766;2022-07-11T02:13:29;13.95;;;4.57;;
62050;SDS011;48008;51.204;6.766;2022-07-11T02:15:56;15.18;;;4.95;;
62050;SDS011;48008;51.204;6.766;2022-07-11T02:18:23;12.80;;;4.53;;
62050;SDS011;48008;51.204;6.766;2022-07-11T02:20:49;13.68;;;4.22;;
62050;SDS011;48008;51.204;6.766;2022-07-11T02:23:17;16.02;;;5.18;;
62050;SDS011;48008;51.204;6.766;2022-07-11T02:25:45;14.02;;;4.78;;
62050;SDS011;48008;51.204;6.766;2022-07-11T02:28:13;16.63;;;4.72;;
62050;SDS011;48008;51.204;6.766;2022-07-11T02:30:41;12.35;;;5.10;;
62050;SDS011;48008;51.204;6.766;2022-07-11T02:33:09;11.65;;;4.50;;
62050;SDS011;48008;51.204;6.766;2022-07-11T02:35:40;11.27;;;4.47;;
62050;SDS011;48008;51.204;6.766;2022-07-11T02:38:07;15.57;;;4.50;;
62050;SDS011;48008;51.204;6.766;2022-07-11T02:40:34;14.45;;;4.80;;
62050;SDS011;48008;51.204;6.766;2022-07-11T02:43:01;16.63;;;4.82;;
62050;SDS011;48008;51.204;6.766;2022-07-11T02:45:27;14.75;;;5.03;;
62050;SDS011;48008;51.204;6.766;2022-07-11T02:47:54;14.18;;;5.15;;
62050;SDS011;48008;51.204;6.766;2022-07-11T02:50:20;15.07;;;4.90;;
62050;SDS011;48008;51.204;6.766;2022-07-11T02:52:47;14.40;;;5.78;;
62050;SDS011;48008;51.204;6.766;2022-07-11T02:55:14;12.52;;;4.90;;
62050;SDS011;48008;51.204;6.766;2022-07-11T02:57:41;17.98;;;5.10;;
62050;SDS011;48008;51.204;6.766;2022-07-11T03:00:11;16.75;;;5.40;;
62050;SDS011;48008;51.204;6.766;2022-07-11T03:05:07;14.55;;;5.25;;
62050;SDS011;48008;51.204;6.766;2022-07-11T03:07:34;16.15;;;5.38;;
62050;SDS011;48008;51.204;6.766;2022-07-11T03:10:01;18.92;;;5.85;;
62050;SDS011;48008;51.204;6.766;2022-07-11T03:12:28;14.15;;;6.40;;
62050;SDS011;48008;51.204;6.766;2022-07-11T03:14:55;14.40;;;5.70;;
62050;SDS011;48008;51.204;6.766;2022-07-11T03:17:22;16.35;;;5.97;;
62050;SDS011;48008;51.204;6.766;2022-07-11T03:19:49;11.80;;;5.68;;
62050;SDS011;48008;51.204;6.766;2022-07-11T03:22:16;16.20;;;6.20;;
62050;SDS011;48008;51.204;6.766;2022-07-11T03:24:43;18.55;;;6.00;;
62050;SDS011;48008;51.204;6.766;2022-07-11T03:27:12;13.65;;;5.63;;
62050;SDS011;48008;51.204;6.766;2022-07-11T03:29:39;13.45;;;5.25;;
62050;SDS011;48008;51.204;6.766;2022-07-11T03:32:07;17.08;;;5.80;;
62050;SDS011;48008;51.204;6.766;2022-07-11T03:34:34;15.00;;;5.70;;
62050;SDS011;48008;51.204;6.766;2022-07-11T03:37:02;12.02;;;5.20;;
62050;SDS011;48008;51.204;6.766;2022-07-11T03:39:29;14.02;;;5.75;;
62050;SDS011;48008;51.204;6.766;2022-07-11T03:41:56;17.10;;;5.88;;
62050;SDS011;48008;51.204;6.766;2022-07-11T03:44:22;16.38;;;6.18;;
62050;SDS011;48008;51.204;6.766;2022-07-11T03:46:50;14.95;;;6.03;;
62050;SDS011;48008;51.204;6.766;2022-07-11T03:49:17;15.48;;;5.95;;
62050;SDS011;48008;51.204;6.766;2022-07-11T03:51:44;17.98;;;7.03;;
62050;SDS011;48008;51.204;6.766;2022-07-11T03:54:10;16.67;;;6.47;;
62050;SDS011;48008;51.204;6.766;2022-07-11T03:56:38;13.98;;;5.57;;
62050;SDS011;48008;51.204;6.766;2022-07-11T03:59:04;14.50;;;5.40;;
62050;SDS011;48008;51.204;6.766;2022-07-11T04:01:31;15.35;;;5.15;;
62050;SDS011;48008;51.204;6.766;2022-07-11T04:03:58;16.73;;;6.05;;
62050;SDS011;48008;51.204;6.766;2022-07-11T04:06:25;16.77;;;5.18;;
62050;SDS011;48008;51.204;6.766;2022-07-11T04:08:52;13.52;;;5.15;;
62050;SDS011;48008;51.204;6.766;2022-07-11T04:11:18;12.90;;;5.13;;
62050;SDS011;48008;51.204;6.766;2022-07-11T04:13:45;16.90;;;4.97;;
62050;SDS011;48008;51.204;6.766;2022-07-11T04:16:12;16.70;;;4.75;;
62050;SDS011;48008;51.204;6.766;2022-07-11T04:18:39;16.50;;;5.10;;
62050;SDS011;48008;51.204;6.766;2022-07-11T04:21:05;17.25;;;5.38;;
62050;SDS011;48008;51.204;6.766;2022-07-11T04:23:33;13.85;;;4.70;;
62050;SDS011;48008;51.204;6.766;2022-07-11T04:26:00;15.20;;;5.40;;
62050;SDS011;48008;51.204;6.766;2022-07-11T04:28:28;18.70;;;4.57;;
62050;SDS011;48008;51.204;6.766;2022-07-11T04:30:55;16.27;;;4.93;;
62050;SDS011;48008;51.204;6.766;2022-07-11T04:33:21;16.05;;;4.15;;
62050;SDS011;48008;51.204;6.766;2022-07-11T04:35:48;14.15;;;4.47;;
62050;SDS011;48008;51.204;6.766;2022-07-11T04:38:14;13.75;;;4.13;;
62050;SDS011;48008;51.204;6.766;2022-07-11T04:40:42;15.95;;;4.55;;
62050;SDS011;48008;51.204;6.766;2022-07-11T04:43:10;13.32;;;4.35;;
62050;SDS011;48008;51.204;6.766;2022-07-11T04:45:36;13.32;;;4.57;;
62050;SDS011;48008;51.204;6.766;2022-07-11T04:48:03;17.95;;;4.60;;
62050;SDS011;48008;51.204;6.766;2022-07-11T04:50:30;13.90;;;4.88;;
62050;SDS011;48008;51.204;6.766;2022-07-11T04:52:57;10.55;;;4.30;;
62050;SDS011;48008;51.204;6.766;2022-07-11T04:55:24;12.07;;;4.47;;
62050;SDS011;48008;51.204;6.766;2022-07-11T04:57:50;16.48;;;4.72;;
62050;SDS011;48008;51.204;6.766;2022-07-11T05:00:18;12.00;;;4.57;;
62050;SDS011;48008;51.204;6.766;2022-07-11T05:02:45;15.00;;;6.45;;
62050;SDS011;48008;51.204;6.766;2022-07-11T05:05:12;12.73;;;4.43;;
62050;SDS011;48008;51.204;6.766;2022-07-11T05:07:39;10.38;;;4.03;;
62050;SDS011;48008;51.204;6.766;2022-07-11T05:10:06;12.30;;;3.90;;
62050;SDS011;48008;51.204;6.766;2022-07-11T05:12:33;9.55;;;3.20;;
62050;SDS011;48008;51.204;6.766;2022-07-11T05:15:00;16.50;;;3.53;;
62050;SDS011;48008;51.204;6.766;2022-07-11T05:17:27;12.25;;;2.92;;
62050;SDS011;48008;51.204;6.766;2022-07-11T05:19:54;8.80;;;2.80;;
62050;SDS011;48008;51.204;6.766;2022-07-11T05:22:20;10.40;;;3.50;;
62050;SDS011;48008;51.204;6.766;2022-07-11T05:24:47;9.38;;;3.35;;
62050;SDS011;48008;51.204;6.766;2022-07-11T05:27:14;10.98;;;3.75;;
62050;SDS011;48008;51.204;6.766;2022-07-11T05:29:42;10.18;;;4.30;;
62050;SDS011;48008;51.204;6.766;2022-07-11T05:32:09;9.48;;;4.57;;
62050;SDS011;48008;51.204;6.766;2022-07-11T05:34:36;13.00;;;5.60;;
62050;SDS011;48008;51.204;6.766;2022-07-11T05:37:04;12.57;;;5.50;;
62050;SDS011;48008;51.204;6.766;2022-07-11T05:39:30;13.65;;;5.95;;
62050;SDS011;48008;51.204;6.766;2022-07-11T05:41:57;12.18;;;5.53;;
62050;SDS011;48008;51.204;6.766;2022-07-11T05:44:24;11.63;;;6.18;;
62050;SDS011;48008;51.204;6.766;2022-07-11T05:46:51;15.02;;;7.47;;
62050;SDS011;48008;51.204;6.766;2022-07-11T05:49:17;13.80;;;8.27;;
62050;SDS011;48008;51.204;6.766;2022-07-11T05:51:44;15.65;;;8.52;;
62050;SDS011;48008;51.204;6.766;2022-07-11T05:54:11;17.48;;;8.90;;
62050;SDS011;48008;51.204;6.766;2022-07-11T05:56:38;17.00;;;8.95;;
62050;SDS011;48008;51.204;6.766;2022-07-11T05:59:04;16.20;;;9.60;;
62050;SDS011;48008;51.204;6.766;2022-07-11T06:01:31;18.30;;;10.73;;
62050;SDS011;48008;51.204;6.766;2022-07-11T06:04:01;18.90;;;11.63;;
62050;SDS011;48008;51.204;6.766;2022-07-11T06:06:28;22.80;;;11.25;;
62050;SDS011;48008;51.204;6.766;2022-07-11T06:08:56;18.98;;;11.35;;
62050;SDS011;48008;51.204;6.766;2022-07-11T06:11:23;20.77;;;10.00;;
62050;SDS011;48008;51.204;6.766;2022-07-11T06:13:50;17.95;;;9.38;;
62050;SDS011;48008;51.204;6.766;2022-07-11T06:16:19;16.70;;;8.70;;
62050;SDS011;48008;51.204;6.766;2022-07-11T06:18:46;20.00;;;9.18;;
62050;SDS011;48008;51.204;6.766;2022-07-11T06:21:13;16.17;;;8.60;;
62050;SDS011;48008;51.204;6.766;2022-07-11T06:23:40;18.38;;;7.55;;
62050;SDS011;48008;51.204;6.766;2022-07-11T06:26:08;19.70;;;9.10;;
62050;SDS011;48008;51.204;6.766;2022-07-11T06:28:37;26.42;;;12.65;;
62050;SDS011;48008;51.204;6.766;2022-07-11T06:31:06;20.25;;;10.07;;
62050;SDS011;48008;51.204;6.766;2022-07-11T06:33:34;20.98;;;9.63;;
62050;SDS011;48008;51.204;6.766;2022-07-11T06:36:02;22.60;;;9.05;;
62050;SDS011;48008;51.204;6.766;2022-07-11T06:38:29;25.40;;;9.00;;
62050;SDS011;48008;51.204;6.766;2022-07-11T06:40:56;24.70;;;8.70;;
62050;SDS011;48008;51.204;6.766;2022-07-11T06:43:23;22.00;;;9.23;;
62050;SDS011;48008;51.204;6.766;2022-07-11T06:45:50;17.83;;;8.88;;
62050;SDS011;48008;51.204;6.766;2022-07-11T06:48:18;26.30;;;11.27;;
62050;SDS011;48008;51.204;6.766;2022-07-11T06:50:47;19.08;;;9.38;;
62050;SDS011;48008;51.204;6.766;2022-07-11T06:53:14;19.17;;;10.27;;
62050;SDS011;48008;51.204;6.766;2022-07-11T06:55:41;23.02;;;11.45;;
62050;SDS011;48008;51.204;6.766;2022-07-11T06:58:08;19.55;;;11.55;;
62050;SDS011;48008;51.204;6.766;2022-07-11T07:00:50;19.38;;;11.50;;
62050;SDS011;48008;51.204;6.766;2022-07-11T07:03:17;22.95;;;11.13;;
62050;SDS011;48008;51.204;6.766;2022-07-11T07:05:45;16.05;;;9.52;;
62050;SDS011;48008;51.204;6.766;2022-07-11T07:08:12;16.83;;;9.57;;
62050;SDS011;48008;51.204;6.766;2022-07-11T07:10:38;17.73;;;8.73;;
62050;SDS011;48008;51.204;6.766;2022-07-11T07:13:05;24.30;;;8.95;;
62050;SDS011;48008;51.204;6.766;2022-07-11T07:15:32;17.08;;;8.23;;
62050;SDS011;48008;51.204;6.766;2022-07-11T07:17:58;14.40;;;8.65;;
62050;SDS011;48008;51.204;6.766;2022-07-11T07:20:29;16.10;;;8.77;;
62050;SDS011;48008;51.204;6.766;2022-07-11T07:22:56;19.90;;;9.38;;
62050;SDS011;48008;51.204;6.766;2022-07-11T07:25:24;15.18;;;9.27;;
62050;SDS011;48008;51.204;6.766;2022-07-11T07:27:50;21.00;;;11.05;;
62050;SDS011;48008;51.204;6.766;2022-07-11T07:30:17;15.95;;;10.10;;
62050;SDS011;48008;51.204;6.766;2022-07-11T07:32:45;21.80;;;10.43;;
62050;SDS011;48008;51.204;6.766;2022-07-11T07:35:12;21.48;;;10.18;;
62050;SDS011;48008;51.204;6.766;2022-07-11T07:37:39;22.83;;;12.85;;
62050;SDS011;48008;51.204;6.766;2022-07-11T07:40:06;22.10;;;12.20;;
62050;SDS011;48008;51.204;6.766;2022-07-11T07:42:32;18.23;;;10.52;;
62050;SDS011;48008;51.204;6.766;2022-07-11T07:44:59;26.30;;;14.60;;
62050;SDS011;48008;51.204;6.766;2022-07-11T07:47:27;18.85;;;9.32;;
62050;SDS011;48008;51.204;6.766;2022-07-11T07:49:56;16.70;;;7.53;;
62050;SDS011;48008;51.204;6.766;2022-07-11T07:52:22;18.63;;;7.88;;
62050;SDS011;48008;51.204;6.766;2022-07-11T07:54:49;17.17;;;7.28;;
62050;SDS011;48008;51.204;6.766;2022-07-11T07:57:16;19.55;;;7.38;;
62050;SDS011;48008;51.204;6.766;2022-07-11T07:59:42;15.82;;;8.68;;
62050;SDS011;48008;51.204;6.766;2022-07-11T08:02:09;15.13;;;7.97;;
62050;SDS011;48008;51.204;6.766;2022-07-11T08:04:36;15.10;;;7.13;;
62050;SDS011;48008;51.204;6.766;2022-07-11T08:07:03;16.35;;;7.65;;
62050;SDS011;48008;51.204;6.766;2022-07-11T08:09:30;17.90;;;10.63;;
62050;SDS011;48008;51.204;6.766;2022-07-11T08:11:56;17.23;;;10.70;;
62050;SDS011;48008;51.204;6.766;2022-07-11T08:14:23;17.45;;;11.02;;
62050;SDS011;48008;51.204;6.766;2022-07-11T08:16:50;19.48;;;9.40;;
62050;SDS011;48008;51.204;6.766;2022-07-11T08:19:17;16.63;;;8.85;;
62050;SDS011;48008;51.204;6.766;2022-07-11T08:21:43;16.02;;;7.75;;
62050;SDS011;48008;51.204;6.766;2022-07-11T08:24:10;17.25;;;9.45;;
62050;SDS011;48008;51.204;6.766;2022-07-11T08:26:37;17.00;;;7.90;;
62050;SDS011;48008;51.204;6.766;2022-07-11T08:29:04;13.77;;;6.90;;
62050;SDS011;48008;51.204;6.766;2022-07-11T08:31:31;13.75;;;7.88;;
62050;SDS011;48008;51.204;6.766;2022-07-11T08:33:59;15.10;;;8.00;;
62050;SDS011;48008;51.204;6.766;2022-07-11T08:36:26;16.70;;;8.43;;
62050;SDS011;48008;51.204;6.766;2022-07-11T08:38:55;13.77;;;7.70;;
62050;SDS011;48008;51.204;6.766;2022-07-11T08:41:22;17.70;;;9.05;;
62050;SDS011;48008;51.204;6.766;2022-07-11T08:43:49;18.80;;;8.90;;
62050;SDS011;48008;51.204;6.766;2022-07-11T08:46:17;17.92;;;8.60;;
62050;SDS011;48008;51.204;6.766;2022-07-11T08:48:46;20.88;;;8.68;;
62050;SDS011;48008;51.204;6.766;2022-07-11T08:51:12;53.45;;;32.45;;
62050;SDS011;48008;51.204;6.766;2022-07-11T08:53:40;18.10;;;9.40;;
62050;SDS011;48008;51.204;6.766;2022-07-11T08:56:10;16.65;;;9.38;;
62050;SDS011;48008;51.204;6.766;2022-07-11T08:58:42;16.92;;;9.70;;
62050;SDS011;48008;51.204;6.766;2022-07-11T09:01:15;18.92;;;11.07;;
62050;SDS011;48008;51.204;6.766;2022-07-11T09:03:43;19.67;;;11.40;;
62050;SDS011;48008;51.204;6.766;2022-07-11T09:06:11;21.13;;;11.70;;
62050;SDS011;48008;51.204;6.766;2022-07-11T09:08:38;20.92;;;12.10;;
62050;SDS011;48008;51.204;6.766;2022-07-11T09:11:05;17.42;;;11.45;;
62050;SDS011;48008;51.204;6.766;2022-07-11T09:13:32;17.55;;;11.68;;
62050;SDS011;48008;51.204;6.766;2022-07-11T09:16:02;20.80;;;10.90;;
62050;SDS011;48008;51.204;6.766;2022-07-11T09:18:33;18.30;;;11.07;;
62050;SDS011;48008;51.204;6.766;2022-07-11T09:21:04;20.77;;;11.90;;
62050;SDS011;48008;51.204;6.766;2022-07-11T09:23:54;24.42;;;14.60;;
62050;SDS011;48008;51.204;6.766;2022-07-11T09:26:42;25.77;;;14.43;;
62050;SDS011;48008;51.204;6.766;2022-07-11T09:29:11;23.90;;;14.77;;
62050;SDS011;48008;51.204;6.766;2022-07-11T09:31:41;27.73;;;15.15;;
62050;SDS011;48008;51.204;6.766;2022-07-11T09:34:13;22.23;;;14.77;;
62050;SDS011;48008;51.204;6.766;2022-07-11T09:39:18;21.63;;;14.27;;
62050;SDS011;48008;51.204;6.766;2022-07-11T09:41:47;22.10;;;14.50;;
62050;SDS011;48008;51.204;6.766;2022-07-11T09:44:18;22.67;;;13.77;;
62050;SDS011;48008;51.204;6.766;2022-07-11T09:46:47;23.43;;;12.87;;
62050;SDS011;48008;51.204;6.766;2022-07-11T09:49:16;18.42;;;12.75;;
62050;SDS011;48008;51.204;6.766;2022-07-11T09:51:55;21.08;;;13.00;;
62050;SDS011;48008;51.204;6.766;2022-07-11T09:54:22;20.70;;;12.75;;
62050;SDS011;48008;51.204;6.766;2022-07-11T09:56:49;21.92;;;13.43;;
62050;SDS011;48008;51.204;6.766;2022-07-11T09:59:22;23.45;;;12.85;;
62050;SDS011;48008;51.204;6.766;2022-07-11T10:01:49;22.10;;;12.13;;
62050;SDS011;48008;51.204;6.766;2022-07-11T10:04:16;21.15;;;12.27;;
62050;SDS011;48008;51.204;6.766;2022-07-11T10:06:44;18.00;;;11.85;;
62050;SDS011;48008;51.204;6.766;2022-07-11T10:09:10;22.52;;;11.27;;
62050;SDS011;48008;51.204;6.766;2022-07-11T10:11:37;19.35;;;10.63;;
62050;SDS011;48008;51.204;6.766;2022-07-11T10:14:05;16.73;;;10.43;;
62050;SDS011;48008;51.204;6.766;2022-07-11T10:16:43;15.77;;;10.65;;
62050;SDS011;48008;51.204;6.766;2022-07-11T10:19:24;15.80;;;9.40;;
62050;SDS011;48008;51.204;6.766;2022-07-11T10:24:54;12.20;;;7.72;;
62050;SDS011;48008;51.204;6.766;2022-07-11T10:27:29;16.38;;;7.82;;
62050;SDS011;48008;51.204;6.766;2022-07-11T10:30:06;12.93;;;6.73;;
62050;SDS011;48008;51.204;6.766;2022-07-11T10:32:40;12.98;;;7.45;;
62050;SDS011;48008;51.204;6.766;2022-07-11T10:35:32;16.10;;;6.90;;
62050;SDS011;48008;51.204;6.766;2022-07-11T10:37:59;13.43;;;7.05;;
62050;SDS011;48008;51.204;6.766;2022-07-11T10:41:02;11.20;;;7.25;;
62050;SDS011;48008;51.204;6.766;2022-07-11T10:46:05;10.45;;;6.15;;
62050;SDS011;48008;51.204;6.766;2022-07-11T10:49:30;9.45;;;5.20;;
62050;SDS011;48008;51.204;6.766;2022-07-11T10:51:34;16.92;;;5.32;;
62050;SDS011;48008;51.204;6.766;2022-07-11T10:54:23;11.23;;;5.53;;
62050;SDS011;48008;51.204;6.766;2022-07-11T10:59:58;14.23;;;5.97;;
62050;SDS011;48008;51.204;6.766;2022-07-11T11:02:28;12.35;;;6.55;;
62050;SDS011;48008;51.204;6.766;2022-07-11T11:04:56;12.80;;;6.03;;
62050;SDS011;48008;51.204;6.766;2022-07-11T11:07:41;12.30;;;6.70;;
62050;SDS011;48008;51.204;6.766;2022-07-11T11:15:51;13.40;;;7.70;;
62050;SDS011;48008;51.204;6.766;2022-07-11T11:23:42;12.70;;;4.47;;
62050;SDS011;48008;51.204;6.766;2022-07-11T11:26:17;10.95;;;3.70;;
62050;SDS011;48008;51.204;6.766;2022-07-11T11:29:01;10.73;;;3.50;;
62050;SDS011;48008;51.204;6.766;2022-07-11T11:31:31;12.00;;;3.67;;
62050;SDS011;48008;51.204;6.766;2022-07-11T11:34:00;10.63;;;3.38;;
62050;SDS011;48008;51.204;6.766;2022-07-11T11:36:29;12.65;;;3.80;;
62050;SDS011;48008;51.204;6.766;2022-07-11T11:38:57;9.95;;;4.03;;
62050;SDS011;48008;51.204;6.766;2022-07-11T11:41:28;8.18;;;3.30;;
62050;SDS011;48008;51.204;6.766;2022-07-11T11:43:57;11.25;;;4.50;;
62050;SDS011;48008;51.204;6.766;2022-07-11T11:46:25;12.88;;;4.20;;
62050;SDS011;48008;51.204;6.766;2022-07-11T11:48:55;7.47;;;2.63;;
62050;SDS011;48008;51.204;6.766;2022-07-11T11:51:22;6.35;;;2.50;;
62050;SDS011;48008;51.204;6.766;2022-07-11T11:56:26;10.90;;;4.60;;
62050;SDS011;48008;51.204;6.766;2022-07-11T11:58:56;7.88;;;4.13;;
62050;SDS011;48008;51.204;6.766;2022-07-11T12:01:31;6.13;;;3.05;;
62050;SDS011;48008;51.204;6.766;2022-07-11T12:04:02;9.05;;;3.45;;
62050;SDS011;48008;51.204;6.766;2022-07-11T12:06:31;8.30;;;3.38;;
62050;SDS011;48008;51.204;6.766;2022-07-11T12:09:01;8.48;;;3.95;;
62050;SDS011;48008;51.204;6.766;2022-07-11T12:11:38;6.80;;;3.33;;
62050;SDS011;48008;51.204;6.766;2022-07-11T12:14:07;7.57;;;3.50;;
62050;SDS011;48008;51.204;6.766;2022-07-11T12:16:39;7.93;;;3.50;;
62050;SDS011;48008;51.204;6.766;2022-07-11T12:21:44;8.00;;;3.58;;
62050;SDS011;48008;51.204;6.766;2022-07-11T12:24:14;8.40;;;3.22;;
62050;SDS011;48008;51.204;6.766;2022-07-11T12:26:42;6.75;;;3.67;;
62050;SDS011;48008;51.204;6.766;2022-07-11T12:29:11;11.93;;;4.97;;
62050;SDS011;48008;51.204;6.766;2022-07-11T12:31:53;12.45;;;5.65;;
62050;SDS011;48008;51.204;6.766;2022-07-11T12:37:09;15.00;;;6.70;;
62050;SDS011;48008;51.204;6.766;2022-07-11T12:39:46;9.30;;;4.57;;
62050;SDS011;48008;51.204;6.766;2022-07-11T12:42:22;12.32;;;3.72;;
62050;SDS011;48008;51.204;6.766;2022-07-11T12:44:56;9.63;;;3.00;;
62050;SDS011;48008;51.204;6.766;2022-07-11T12:47:40;7.15;;;2.60;;
62050;SDS011;48008;51.204;6.766;2022-07-11T12:50:12;7.68;;;2.35;;
62050;SDS011;48008;51.204;6.766;2022-07-11T12:52:51;11.82;;;2.20;;
62050;SDS011;48008;51.204;6.766;2022-07-11T12:55:20;4.43;;;2.03;;
62050;SDS011;48008;51.204;6.766;2022-07-11T12:58:04;4.93;;;1.80;;
62050;SDS011;48008;51.204;6.766;2022-07-11T13:00:44;7.00;;;2.20;;
62050;SDS011;48008;51.204;6.766;2022-07-11T13:03:30;9.65;;;3.00;;
62050;SDS011;48008;51.204;6.766;2022-07-11T13:06:00;8.00;;;2.55;;
62050;SDS011;48008;51.204;6.766;2022-07-11T13:08:29;7.65;;;2.50;;
62050;SDS011;48008;51.204;6.766;2022-07-11T13:11:14;7.75;;;3.05;;
62050;SDS011;48008;51.204;6.766;2022-07-11T13:13:42;6.97;;;2.38;;
62050;SDS011;48008;51.204;6.766;2022-07-11T13:16:13;8.60;;;2.50;;
62050;SDS011;48008;51.204;6.766;2022-07-11T13:18:41;7.35;;;3.20;;
62050;SDS011;48008;51.204;6.766;2022-07-11T13:21:09;7.63;;;3.10;;
62050;SDS011;48008;51.204;6.766;2022-07-11T13:23:36;6.03;;;2.55;;
62050;SDS011;48008;51.204;6.766;2022-07-11T13:26:05;9.45;;;2.47;;
62050;SDS011;48008;51.204;6.766;2022-07-11T13:28:33;8.23;;;3.38;;
62050;SDS011;48008;51.204;6.766;2022-07-11T13:31:00;12.60;;;3.33;;
62050;SDS011;48008;51.204;6.766;2022-07-11T13:33:37;9.68;;;4.18;;
62050;SDS011;48008;51.204;6.766;2022-07-11T13:36:04;9.93;;;4.90;;
62050;SDS011;48008;51.204;6.766;2022-07-11T13:38:31;9.82;;;4.43;;
62050;SDS011;48008;51.204;6.766;2022-07-11T13:40:59;11.77;;;4.15;;
62050;SDS011;48008;51.204;6.766;2022-07-11T13:43:26;7.80;;;4.00;;
62050;SDS011;48008;51.204;6.766;2022-07-11T13:45:52;8.48;;;4.57;;
62050;SDS011;48008;51.204;6.766;2022-07-11T13:48:19;9.98;;;4.60;;
62050;SDS011;48008;51.204;6.766;2022-07-11T13:50:46;12.82;;;4.63;;
62050;SDS011;48008;51.204;6.766;2022-07-11T13:53:12;10.43;;;5.93;;
62050;SDS011;48008;51.204;6.766;2022-07-11T13:55:39;13.57;;;8.70;;
62050;SDS011;48008;51.204;6.766;2022-07-11T13:58:06;16.50;;;10.40;;
62050;SDS011;48008;51.204;6.766;2022-07-11T14:00:54;18.30;;;10.80;;
62050;SDS011;48008;51.204;6.766;2022-07-11T14:03:20;15.00;;;10.68;;
62050;SDS011;48008;51.204;6.766;2022-07-11T14:05:47;21.10;;;10.93;;
62050;SDS011;48008;51.204;6.766;2022-07-11T14:08:14;16.55;;;8.80;;
62050;SDS011;48008;51.204;6.766;2022-07-11T14:10:41;13.05;;;6.32;;
62050;SDS011;48008;51.204;6.766;2022-07-11T14:13:08;10.60;;;6.22;;
62050;SDS011;48008;51.204;6.766;2022-07-11T14:15:37;13.40;;;6.97;;
62050;SDS011;48008;51.204;6.766;2022-07-11T14:18:04;11.38;;;7.60;;
62050;SDS011;48008;51.204;6.766;2022-07-11T14:20:31;13.80;;;6.53;;
62050;SDS011;48008;51.204;6.766;2022-07-11T14:22:58;11.63;;;4.82;;
62050;SDS011;48008;51.204;6.766;2022-07-11T14:25:25;6.75;;;3.10;;
62050;SDS011;48008;51.204;6.766;2022-07-11T14:27:52;9.70;;;3.33;;
62050;SDS011;48008;51.204;6.766;2022-07-11T14:30:19;7.85;;;3.22;;
62050;SDS011;48008;51.204;6.766;2022-07-11T14:32:45;6.65;;;2.78;;
62050;SDS011;48008;51.204;6.766;2022-07-11T14:35:12;6.22;;;2.33;;
62050;SDS011;48008;51.204;6.766;2022-07-11T14:37:39;7.68;;;2.40;;
62050;SDS011;48008;51.204;6.766;2022-07-11T14:40:06;6.63;;;2.40;;
62050;SDS011;48008;51.204;6.766;2022-07-11T14:42:34;6.57;;;2.10;;
62050;SDS011;48008;51.204;6.766;2022-07-11T14:45:06;6.05;;;1.92;;
62050;SDS011;48008;51.204;6.766;2022-07-11T14:47:33;11.13;;;2.50;;
62050;SDS011;48008;51.204;6.766;2022-07-11T14:50:01;6.95;;;2.00;;
62050;SDS011;48008;51.204;6.766;2022-07-11T14:52:29;5.85;;;2.40;;
62050;SDS011;48008;51.204;6.766;2022-07-11T14:54:56;5.80;;;2.30;;
62050;SDS011;48008;51.204;6.766;2022-07-11T14:57:22;5.43;;;1.88;;
62050;SDS011;48008;51.204;6.766;2022-07-11T14:59:50;6.55;;;1.88;;
62050;SDS011;48008;51.204;6.766;2022-07-11T15:02:17;5.90;;;2.20;;
62050;SDS011;48008;51.204;6.766;2022-07-11T15:05:04;5.30;;;2.25;;
62050;SDS011;48008;51.204;6.766;2022-07-11T15:07:31;7.95;;;2.50;;
62050;SDS011;48008;51.204;6.766;2022-07-11T15:10:18;9.05;;;2.83;;
62050;SDS011;48008;51.204;6.766;2022-07-11T15:13:07;8.50;;;2.88;;
62050;SDS011;48008;51.204;6.766;2022-07-11T15:15:34;9.45;;;3.53;;
62050;SDS011;48008;51.204;6.766;2022-07-11T15:18:01;11.80;;;3.30;;
62050;SDS011;48008;51.204;6.766;2022-07-11T15:20:27;10.43;;;3.03;;